Time;durP1;ratioP1;P1;durP2;ratioP2;P2;SDS_P1;SDS_P2;PMS_P1;PMS_P2;Temp;Humidity;BMP_temperature;BMP_pressure;BME280_temperature;BME280_humidity;BME280_pressure;Samples;Min_cycle;Max_cycle;Signal;HPM_P1;HPM_P2
2023/10/10 00:00:23;;;;;;;5.45;1.88;;;;;;;13.47;53.95;99956.34;6304009;22;20090;-86
2023/10/10 00:02:52;;;;;;;7.13;2.17;;;;;;;13.41;53.52;99968.84;6305534;22;20003;-86
2023/10/10 00:05:33;;;;;;;5.40;2.67;;;;;;;13.32;53.37;99953.09;6305158;22;20082;-85
2023/10/10 00:08:00;;;;;;;5.28;2.15;;;;;;;13.45;53.06;99971.41;6305352;22;20079;-85
2023/10/10 00:10:27;;;;;;;4.72;2.55;;;;;;;13.38;53.36;99963.59;6305276;22;20007;-85
2023/10/10 00:12:53;;;;;;;16.23;3.15;;;;;;;13.38;53.27;99958.31;6304829;22;20007;-86
2023/10/10 00:15:25;;;;;;;4.93;2.50;;;;;;;13.28;53.02;99932.88;6305372;22;20070;-85
2023/10/10 00:17:50;;;;;;;9.32;2.75;;;;;;;13.29;53.48;99945.22;6305297;22;20140;-85
2023/10/10 00:20:16;;;;;;;;;;;;;;;13.20;53.76;99975.44;6305642;22;20026;-86
2023/10/10 00:22:46;;;;;;;20.15;2.97;;;;;;;13.22;53.81;99976.28;6305558;22;19982;-86
2023/10/10 00:25:12;;;;;;;12.30;2.78;;;;;;;13.14;53.58;99945.56;6304922;22;20011;-86
2023/10/10 00:27:43;;;;;;;5.32;2.05;;;;;;;13.18;53.75;99929.56;6306425;22;20004;-85
2023/10/10 00:30:13;;;;;;;5.25;1.90;;;;;;;13.03;53.45;99941.34;6305315;22;20141;-90
2023/10/10 00:32:45;;;;;;;6.95;2.55;;;;;;;13.11;53.25;99969.47;6305892;22;20010;-85
2023/10/10 00:35:10;;;;;;;3.17;2.15;;;;;;;12.70;53.51;99932.34;6305435;22;20000;-86
2023/10/10 00:37:36;;;;;;;;;;;;;;;12.98;53.92;99967.06;6305987;22;20004;-85
2023/10/10 00:40:10;;;;;;;2.67;1.73;;;;;;;13.06;54.05;99959.81;6304606;22;19989;-85
2023/10/10 00:42:41;;;;;;;4.95;2.60;;;;;;;13.01;54.20;99931.72;6305836;22;20014;-84
2023/10/10 00:45:09;;;;;;;4.22;2.35;;;;;;;13.19;54.43;99964.88;6305490;22;20026;-85
2023/10/10 00:47:51;;;;;;;5.82;2.72;;;;;;;13.17;53.98;99917.22;6305717;22;20007;-85
2023/10/10 00:50:19;;;;;;;10.13;2.25;;;;;;;13.21;54.44;99933.94;6304833;22;19999;-87
2023/10/10 00:52:50;;;;;;;6.82;2.28;;;;;;;13.41;54.43;99949.41;6305324;22;20491;-85
2023/10/10 00:55:21;;;;;;;8.52;2.55;;;;;;;13.29;54.12;99920.53;6305200;22;20023;-85
2023/10/10 00:57:52;;;;;;;4.68;2.33;;;;;;;13.39;54.10;99922.97;6305739;22;20026;-85
2023/10/10 01:00:19;;;;;;;6.32;2.30;;;;;;;13.40;55.04;99943.22;6305150;22;20091;-85
2023/10/10 01:02:46;;;;;;;6.07;2.20;;;;;;;13.23;53.75;99879.13;6305206;22;20053;-86
2023/10/10 01:05:12;;;;;;;9.43;3.38;;;;;;;13.27;54.43;99894.06;6305559;22;20011;-86
2023/10/10 01:07:39;;;;;;;21.73;3.13;;;;;;;13.33;54.05;99899.25;6305013;22;20006;-85
2023/10/10 01:10:11;;;;;;;7.10;3.08;;;;;;;13.43;54.46;99902.56;6305036;22;20026;-84
2023/10/10 01:12:39;;;;;;;7.90;2.85;;;;;;;13.22;53.62;99880.03;6305514;22;20003;-84
2023/10/10 01:15:16;;;;;;;3.10;2.08;;;;;;;13.07;53.62;99875.97;6305306;22;19999;-84
2023/10/10 01:17:43;;;;;;;5.95;3.33;;;;;;;13.33;53.67;99917.81;6305203;22;20113;-84
2023/10/10 01:20:19;;;;;;;8.32;2.92;;;;;;;13.34;52.75;99922.19;6304256;22;20007;-84
2023/10/10 01:22:48;;;;;;;8.38;2.10;;;;;;;12.91;53.27;99886.00;6304711;22;20002;-84
2023/10/10 01:28:13;;;;;;;8.38;2.50;;;;;;;13.09;54.23;99913.88;6304549;22;20007;-85
2023/10/10 01:33:25;;;;;;;9.38;2.85;;;;;;;12.95;54.46;99884.19;6303846;22;20403;-86
2023/10/10 01:35:55;;;;;;;3.97;2.38;;;;;;;13.39;54.66;99951.22;6304992;22;20177;-86
2023/10/10 01:38:55;;;;;;;6.78;2.67;;;;;;;13.41;54.46;99954.72;6304841;22;20049;-86
2023/10/10 01:41:48;;;;;;;7.05;2.67;;;;;;;13.33;54.89;99909.84;6304907;22;20005;-85
2023/10/10 01:44:22;;;;;;;8.45;3.03;;;;;;;13.34;55.53;99932.78;6304660;22;20035;-89
2023/10/10 01:46:50;;;;;;;10.73;2.50;;;;;;;13.17;55.67;99895.16;6305145;22;19999;-85
2023/10/10 01:49:20;;;;;;;4.85;2.47;;;;;;;13.29;55.22;99909.94;6304746;22;19999;-85
2023/10/10 01:51:50;;;;;;;5.28;2.40;;;;;;;13.42;54.95;99948.50;6304607;22;20090;-85
2023/10/10 01:54:18;;;;;;;4.40;2.75;;;;;;;13.04;55.44;99871.59;6304488;22;20094;-84
2023/10/10 01:56:44;;;;;;;5.88;2.85;;;;;;;13.45;55.35;99915.78;6303134;22;20446;-89
2023/10/10 01:59:17;;;;;;;3.17;1.70;;;;;;;13.37;55.42;99937.13;6304261;22;20008;-84
2023/10/10 02:01:42;;;;;;;8.18;2.22;;;;;;;13.29;55.29;99908.13;6304589;22;20010;-86
2023/10/10 02:04:08;;;;;;;;;;;;;;;13.34;54.86;99935.41;6305267;22;20373;-84
2023/10/10 02:06:39;;;;;;;7.13;3.03;;;;;;;13.41;55.23;99954.72;6304228;22;19907;-85
2023/10/10 02:09:12;;;;;;;5.78;2.50;;;;;;;13.17;55.57;99933.13;6304651;22;20088;-84
2023/10/10 02:11:49;;;;;;;8.02;3.13;;;;;;;12.97;55.18;99940.63;6304262;22;20425;-85
2023/10/10 02:14:18;;;;;;;7.90;3.70;;;;;;;12.79;55.19;99928.63;6304402;22;20039;-89
2023/10/10 02:16:48;;;;;;;17.35;5.13;;;;;;;12.80;54.58;99923.31;6303806;22;20068;-85
2023/10/10 02:19:32;;;;;;;10.75;4.68;;;;;;;12.30;55.40;99888.16;6302842;22;20003;-84
2023/10/10 02:22:15;;;;;;;5.77;3.40;;;;;;;12.73;54.93;99966.69;6304423;22;20053;-84
2023/10/10 02:24:41;;;;;;;11.70;4.47;;;;;;;12.77;54.89;99968.34;6301568;22;20160;-86
2023/10/10 02:27:06;;;;;;;;;;;;;;;12.50;55.51;99975.06;6304754;22;20027;-84
2023/10/10 02:32:12;;;;;;;9.35;3.60;;;;;;;12.20;55.21;99932.38;6303707;22;20003;-84
2023/10/10 02:34:42;;;;;;;6.65;3.67;;;;;;;12.02;55.18;99944.16;6304502;22;20004;-85
2023/10/10 02:39:55;;;;;;;13.23;2.95;;;;;;;12.07;54.86;99950.25;6303784;22;20011;-85
2023/10/10 02:42:23;;;;;;;9.55;3.38;;;;;;;11.65;55.23;99919.16;6304001;22;19999;-84
2023/10/10 02:44:57;;;;;;;11.98;3.92;;;;;;;11.70;55.25;99928.81;6302983;22;20003;-85
2023/10/10 02:47:32;;;;;;;6.60;2.92;;;;;;;11.84;55.20;99947.94;6304116;22;20064;-84
2023/10/10 02:50:10;;;;;;;;;;;;;;;12.05;54.82;99970.56;6304286;22;20132;-84
2023/10/10 02:52:39;;;;;;;6.53;3.85;;;;;;;12.10;54.80;99981.06;6303729;22;19915;-84
2023/10/10 02:55:33;;;;;;;6.72;3.38;;;;;;;12.09;55.19;99960.78;6302238;22;20319;-85
2023/10/10 02:57:59;;;;;;;19.30;4.38;;;;;;;11.77;56.10;99938.34;6303731;22;20505;-84
2023/10/10 03:02:53;;;;;;;;;;;;;;;11.67;57.48;99974.63;6304181;22;20095;-86
2023/10/10 03:05:37;;;;;;;5.82;3.33;;;;;;;11.73;56.38;99950.75;6303993;22;19907;-87
2023/10/10 03:08:12;;;;;;;6.10;3.90;;;;;;;12.13;56.35;99986.31;6304102;22;20003;-85
2023/10/10 03:10:41;;;;;;;34.83;3.17;;;;;;;12.17;56.23;99956.25;6304101;22;20014;-85
2023/10/10 03:13:27;;;;;;;12.95;4.32;;;;;;;11.98;56.69;99934.53;6302707;22;19999;-86
2023/10/10 03:16:11;;;;;;;7.10;3.45;;;;;;;12.20;56.74;99961.47;6304436;22;19999;-85
2023/10/10 03:18:37;;;;;;;7.53;4.75;;;;;;;12.02;57.12;99945.91;6303751;22;20063;-86
2023/10/10 03:24:07;;;;;;;6.15;3.38;;;;;;;12.04;57.09;99960.88;6303330;22;19929;-89
2023/10/10 03:26:52;;;;;;;7.53;3.60;;;;;;;11.99;56.81;99936.28;6303509;22;20103;-87
2023/10/10 03:29:26;;;;;;;;;;;;;;;12.08;57.58;99966.97;6304532;22;20041;-85
2023/10/10 03:34:55;;;;;;;13.55;4.78;;;;;;;11.98;57.71;99959.19;6303654;22;20010;-86
2023/10/10 03:37:40;;;;;;;8.85;4.07;;;;;;;11.97;57.82;99953.94;6303634;22;20007;-86
2023/10/10 03:41:04;;;;;;;12.60;4.85;;;;;;;12.13;57.70;99973.94;6304061;22;20078;-84
2023/10/10 05:24:35;;;;;;;8.93;3.83;;;;;;;13.33;58.29;99999.94;6301003;22;20029;-87
2023/10/10 05:27:02;;;;;;;13.48;4.18;;;;;;;13.49;58.33;100003.13;6301391;22;19999;-83
2023/10/10 05:29:30;;;;;;;24.90;5.97;;;;;;;13.56;58.18;100002.06;6301149;22;20446;-83
2023/10/10 05:31:59;;;;;;;12.40;3.38;;;;;;;13.70;58.04;99990.28;6302385;22;20090;-85
2023/10/10 05:34:25;;;;;;;17.02;3.60;;;;;;;14.15;57.37;100022.78;6301137;22;20042;-82
2023/10/10 05:36:50;;;;;;;;;;;;;;;14.26;56.28;100025.19;6301199;22;20010;-87
2023/10/10 05:39:21;;;;;;;5.63;3.50;;;;;;;14.49;55.82;100037.00;6300191;22;19917;-82
2023/10/10 05:41:54;;;;;;;8.05;4.63;;;;;;;14.27;55.29;99991.53;6301264;22;20007;-81
2023/10/10 05:44:20;;;;;;;14.68;3.90;;;;;;;14.28;55.56;100006.56;6300888;22;20014;-82
2023/10/10 05:46:47;;;;;;;15.43;3.88;;;;;;;14.55;55.75;100034.19;6300867;22;20010;-82
2023/10/10 05:49:13;;;;;;;17.63;3.60;;;;;;;14.26;55.54;99996.00;6300885;22;20011;-84
2023/10/10 05:51:38;;;;;;;;;;;;;;;14.67;56.19;100043.63;6325059;22;20089;-81
2023/10/10 05:54:04;;;;;;;10.55;3.13;;;;;;;14.87;54.63;100043.09;6299362;22;19902;-82
2023/10/10 05:56:30;;;;;;;7.85;3.88;;;;;;;15.16;53.93;100017.53;6300581;22;20013;-82
2023/10/10 05:58:56;;;;;;;9.10;3.65;;;;;;;15.54;53.04;100029.69;6301028;22;20400;-83
2023/10/10 06:01:23;;;;;;;10.35;3.83;;;;;;;15.58;52.71;100012.72;6300599;22;20061;-83
2023/10/10 06:03:51;;;;;;;11.25;3.85;;;;;;;15.72;51.64;100014.06;6303922;22;20003;-82
2023/10/10 06:06:18;;;;;;;17.05;5.03;;;;;;;16.01;51.67;100046.91;6302871;22;20047;-82
2023/10/10 06:08:44;;;;;;;13.57;4.32;;;;;;;15.99;51.29;100024.78;6302994;22;20035;-81
2023/10/10 06:11:16;;;;;;;8.68;3.95;;;;;;;16.24;50.90;100051.50;6300916;22;20003;-83
2023/10/10 06:13:43;;;;;;;12.63;3.72;;;;;;;16.16;50.89;100018.91;6303213;22;20053;-83
2023/10/10 06:16:13;;;;;;;7.10;3.47;;;;;;;16.46;50.60;100039.19;6301811;22;20003;-83
2023/10/10 06:18:44;;;;;;;13.00;3.78;;;;;;;16.53;49.75;100025.66;6303588;22;20049;-82
2023/10/10 06:21:09;;;;;;;8.85;4.18;;;;;;;16.39;50.56;100034.13;6303075;22;20027;-82
2023/10/10 06:23:36;;;;;;;6.70;3.10;;;;;;;16.63;50.18;100048.41;6303498;22;20003;-86
2023/10/10 06:26:06;;;;;;;9.98;3.53;;;;;;;16.51;50.09;100015.06;6303149;22;20003;-82
2023/10/10 06:28:47;;;;;;;9.63;4.03;;;;;;;16.87;49.65;100038.72;6303480;22;20030;-82
2023/10/10 06:31:19;;;;;;;13.25;4.88;;;;;;;16.96;49.80;100049.06;6301211;22;20342;-82
2023/10/10 06:33:49;;;;;;;7.53;3.97;;;;;;;17.03;48.97;100041.72;6303862;22;20003;-82
2023/10/10 06:39:34;;;;;;;10.93;4.20;;;;;;;17.47;48.17;100049.88;6302881;22;20003;-86
2023/10/10 06:41:37;;;;;;;11.95;4.97;;;;;;;17.39;48.17;100033.25;6291689;22;20018;-89
2023/10/10 06:46:48;;;;;;;12.35;4.35;;;;;;;17.42;47.97;100066.97;6303350;22;20160;-88
2023/10/10 06:49:14;;;;;;;10.05;4.32;;;;;;;17.49;47.57;100063.13;6304051;22;20003;-88
2023/10/10 06:51:41;;;;;;;9.18;4.65;;;;;;;17.47;47.71;100052.53;6300817;22;20029;-88
2023/10/10 06:54:08;;;;;;;10.48;4.85;;;;;;;17.27;48.54;100055.94;6302684;22;20056;-89
2023/10/10 06:56:44;;;;;;;18.25;4.65;;;;;;;17.29;48.38;100030.09;6302331;22;20011;-87
2023/10/10 06:59:16;;;;;;;15.80;4.03;;;;;;;17.24;48.77;100057.84;6302171;22;20010;-87
2023/10/10 07:01:45;;;;;;;11.07;4.32;;;;;;;16.80;48.66;100003.38;6300800;22;20021;-87
2023/10/10 07:04:11;;;;;;;18.38;3.15;;;;;;;16.72;48.84;100048.09;6302310;22;20080;-85
2023/10/10 07:06:37;;;;;;;7.60;3.33;;;;;;;16.55;49.12;100035.34;6299899;22;20110;-86
2023/10/10 07:09:14;;;;;;;14.82;3.70;;;;;;;16.77;49.78;100074.56;6299642;22;20031;-86
2023/10/10 07:11:43;;;;;;;5.18;3.58;;;;;;;16.20;49.65;100004.59;6299817;22;20450;-89
2023/10/10 07:14:10;;;;;;;12.02;4.28;;;;;;;16.44;48.64;100017.09;6298754;22;20391;-87
2023/10/10 07:16:42;;;;;;;13.38;4.85;;;;;;;16.64;48.36;100027.03;6299454;22;20004;-88
2023/10/10 07:19:30;;;;;;;11.52;3.90;;;;;;;16.63;48.47;100046.59;6300127;22;20003;-87
2023/10/10 07:21:54;;;;;;;10.95;4.55;;;;;;;16.23;48.14;99986.72;6298531;22;20003;-88
2023/10/10 07:24:25;;;;;;;7.15;3.35;;;;;;;16.28;48.13;99979.47;6298479;22;20026;-88
2023/10/10 07:26:59;;;;;;;7.25;3.72;;;;;;;16.89;47.68;100042.19;6300006;22;20007;-88
2023/10/10 07:29:27;;;;;;;12.07;3.97;;;;;;;17.17;47.78;100049.19;6300772;22;20003;-91
2023/10/10 07:34:42;;;;;;;7.70;3.83;;;;;;;17.33;47.60;100029.06;6301454;22;20365;-88
2023/10/10 07:37:08;;;;;;;8.07;3.45;;;;;;;17.44;47.20;100070.41;6302764;22;20011;-89
2023/10/10 07:39:55;;;;;;;6.63;3.55;;;;;;;17.31;46.85;100056.69;6302850;22;20003;-88
2023/10/10 07:42:27;;;;;;;10.05;2.80;;;;;;;17.33;46.95;100052.16;6303541;22;20010;-89
2023/10/10 07:45:02;;;;;;;12.50;3.20;;;;;;;17.25;47.55;100059.59;6303787;22;20003;-89
2023/10/10 07:47:32;;;;;;;9.50;4.00;;;;;;;17.40;47.52;100059.00;6305628;22;20014;-89
2023/10/10 07:50:08;;;;;;;7.80;3.67;;;;;;;17.46;47.08;100026.78;6304003;22;20462;-88
2023/10/10 07:52:35;;;;;;;6.82;2.95;;;;;;;17.56;47.22;100069.09;6303941;22;20014;-89
2023/10/10 07:55:04;;;;;;;13.02;4.93;;;;;;;17.60;47.25;100052.06;6302598;22;20087;-88
2023/10/10 07:57:55;;;;;;;8.52;3.92;;;;;;;17.65;47.52;100023.41;6302540;22;20404;-89
2023/10/10 08:00:17;;;;;;;9.85;4.05;;;;;;;17.78;47.20;100043.34;6305141;22;20072;-87
2023/10/10 08:02:49;;;;;;;8.02;3.63;;;;;;;17.61;47.42;100033.34;6305187;22;20003;-90
2023/10/10 08:05:19;;;;;;;6.30;3.63;;;;;;;17.93;47.26;100003.66;6305709;22;20086;-92
2023/10/10 08:07:45;;;;;;;17.27;4.07;;;;;;;18.45;45.91;100036.22;6307874;22;20007;-92
2023/10/10 08:10:14;;;;;;;6.22;3.78;;;;;;;18.92;46.73;100046.72;6311205;22;20003;-93
2023/10/10 08:12:42;;;;;;;17.60;4.35;;;;;;;18.83;44.92;100019.47;6309414;22;20007;-88
2023/10/10 08:15:24;;;;;;;6.13;2.95;;;;;;;18.71;45.42;100019.06;6315887;22;20343;-92
2023/10/10 08:17:54;;;;;;;11.73;4.82;;;;;;;18.98;45.47;100052.72;6322096;22;20015;-95
2023/10/10 08:20:35;;;;;;;10.18;3.33;;;;;;;19.04;44.67;100010.53;6306639;22;20042;-91
2023/10/10 08:23:03;;;;;;;6.43;3.53;;;;;;;19.61;44.45;100037.34;6310731;22;20419;-90
2023/10/10 08:25:29;;;;;;;8.25;3.25;;;;;;;19.80;43.99;100031.13;6315154;22;19995;-93
2023/10/10 08:27:55;;;;;;;15.77;3.63;;;;;;;20.08;43.25;99995.00;6334221;22;20037;-91
2023/10/10 08:30:25;;;;;;;5.57;2.78;;;;;;;20.10;42.89;99947.59;6334204;22;20002;-90
2023/10/10 08:33:01;;;;;;;7.55;3.63;;;;;;;20.92;41.72;99976.44;6331461;22;20006;-92
2023/10/10 08:35:29;;;;;;;;;;;;;;;21.36;41.23;100039.34;6333687;22;19987;-89
2023/10/10 08:37:58;;;;;;;9.13;5.30;;;;;;;21.18;41.03;100014.38;6332460;22;19906;-87
2023/10/10 08:40:30;;;;;;;14.65;5.38;;;;;;;21.32;41.48;100019.88;6333410;22;20007;-88
2023/10/10 08:42:56;;;;;;;10.13;3.00;;;;;;;21.21;41.52;100009.72;6310936;22;20003;-86
2023/10/10 08:45:24;;;;;;;8.27;3.17;;;;;;;21.26;41.68;100018.38;6305171;22;20003;-90
2023/10/10 08:47:59;;;;;;;13.30;3.58;;;;;;;21.41;41.05;100013.09;6304333;22;20003;-86
2023/10/10 08:50:24;;;;;;;6.88;2.67;;;;;;;21.35;41.15;100008.09;6302501;22;20033;-91
2023/10/10 08:52:53;;;;;;;7.18;2.85;;;;;;;21.27;40.99;99995.09;6302657;22;20008;-96
2023/10/10 08:55:28;;;;;;;6.68;2.00;;;;;;;21.20;40.81;99974.94;6303837;22;20007;-95
2023/10/10 08:57:57;;;;;;;6.10;2.58;;;;;;;21.52;40.89;99993.75;6304917;22;20003;-95
2023/10/10 09:00:27;;;;;;;4.88;2.45;;;;;;;21.24;41.30;99965.75;6302938;22;20014;-92
2023/10/10 09:03:21;;;;;;;;;;;;;;;;;;;;;
2023/10/10 09:05:47;;;;;;;;;;;;;;;22.09;41.27;100042.47;6306742;22;20411;-94
2023/10/10 09:08:26;;;;;;;8.55;1.80;;;;;;;21.83;41.14;99947.28;6305305;22;19926;-94
2023/10/10 09:10:56;;;;;;;5.85;3.10;;;;;;;21.92;40.73;99970.91;6277196;22;20445;-93
2023/10/10 09:13:25;;;;;;;5.80;2.65;;;;;;;21.79;40.85;99973.41;6304365;22;20007;-91
2023/10/10 09:15:57;;;;;;;4.78;2.45;;;;;;;21.81;41.64;99984.06;6304629;22;19999;-92
2023/10/10 09:18:25;;;;;;;5.07;2.80;;;;;;;22.18;42.01;100006.13;6304853;22;20078;-91
2023/10/10 09:20:54;;;;;;;4.63;1.95;;;;;;;22.26;41.07;99990.44;6303359;22;20011;-95
2023/10/10 09:23:32;;;;;;;8.23;2.22;;;;;;;22.14;41.43;99986.63;6304003;22;20153;-95
2023/10/10 09:29:00;;;;;;;4.53;2.08;;;;;;;22.46;40.77;99973.16;6304153;22;20386;-93
2023/10/10 09:31:34;;;;;;;5.57;2.53;;;;;;;22.93;41.29;99968.50;6305195;22;20049;-94
2023/10/10 09:34:06;;;;;;;5.43;2.13;;;;;;;23.27;41.02;100035.53;6304188;22;20003;-91
2023/10/10 09:36:38;;;;;;;7.70;2.42;;;;;;;23.11;40.85;99960.28;6304466;22;20003;-89
2023/10/10 09:39:36;;;;;;;7.05;2.80;;;;;;;23.40;40.92;100005.06;6302924;22;19999;-90
2023/10/10 09:52:58;;;;;;;5.60;1.90;;;;;;;23.12;39.96;99929.72;6301486;22;20514;-87
2023/10/10 10:09:08;;;;;;;6.22;1.73;;;;;;;23.29;39.23;99958.25;6300545;22;20011;-84
2023/10/10 10:11:59;;;;;;;4.32;2.15;;;;;;;23.88;39.07;99982.28;6300895;22;20007;-95
2023/10/10 10:14:46;;;;;;;4.18;1.42;;;;;;;23.78;38.42;99952.38;6300757;22;20007;-86
2023/10/10 10:17:23;;;;;;;10.45;1.75;;;;;;;23.67;38.57;99938.78;6301289;22;20037;-90
2023/10/10 10:19:49;;;;;;;3.45;1.05;;;;;;;23.84;38.61;99973.56;6327460;22;20393;-89
2023/10/10 10:22:18;;;;;;;3.03;1.63;;;;;;;23.68;39.07;99946.75;6300687;22;20007;-87
2023/10/10 10:24:46;;;;;;;4.30;1.27;;;;;;;24.10;39.15;100003.31;6303357;22;20019;-89
2023/10/10 10:27:31;;;;;;;2.05;0.80;;;;;;;23.93;38.57;99966.72;6302302;22;20327;-84
2023/10/10 10:32:58;;;;;;;8.52;1.88;;;;;;;;;;6239621;23;19927;-82
2023/10/10 10:35:36;;;;;;;1.67;0.70;;;;;;;23.28;39.05;99938.56;6239237;23;20056;-85
2023/10/10 10:38:06;;;;;;;1.65;1.08;;;;;;;23.40;39.75;99950.34;6239726;23;20430;-83
2023/10/10 10:43:05;;;;;;;4.53;1.60;;;;;;;23.99;39.19;100003.13;6239432;23;20004;-81
2023/10/10 10:45:37;;;;;;;5.50;1.30;;;;;;;23.84;38.21;99973.56;6239478;23;20074;-84
2023/10/10 10:48:31;;;;;;;6.68;2.25;;;;;;;24.16;38.37;99992.13;6239810;23;20035;-86
2023/10/10 10:51:22;;;;;;;4.40;1.48;;;;;;;23.91;37.93;99956.03;6237978;23;20004;-85
2023/10/10 10:53:50;;;;;;;6.07;1.60;;;;;;;23.97;38.09;99940.41;6239112;23;20214;-91
2023/10/10 11:01:27;;;;;;;1.83;1.20;;;;;;;23.82;37.95;99958.41;6239449;23;20008;-86
2023/10/10 11:03:54;;;;;;;5.53;1.65;;;;;;;23.73;38.46;99970.69;6239048;23;20039;-86
2023/10/10 11:06:24;;;;;;;7.85;1.48;;;;;;;23.99;38.81;100014.78;6238674;23;20087;-86
2023/10/10 11:14:00;;;;;;;7.55;1.63;;;;;;;23.21;39.04;99934.53;6302800;22;20007;-83
2023/10/10 11:16:38;;;;;;;3.10;1.38;;;;;;;23.25;39.04;99946.84;6303424;22;20093;-83
2023/10/10 11:21:49;;;;;;;2.78;1.63;;;;;;;23.72;38.76;99968.94;6302719;22;20464;-83
2023/10/10 11:24:25;;;;;;;3.88;1.38;;;;;;;23.49;38.49;99946.22;6303143;22;20021;-81
2023/10/10 11:29:29;;;;;;;5.10;1.55;;;;;;;23.96;38.97;100009.59;6302935;22;20514;-84
2023/10/10 11:32:07;;;;;;;3.42;1.50;;;;;;;23.66;38.98;99980.97;6302257;22;20007;-82
2023/10/10 11:34:56;;;;;;;10.57;1.55;;;;;;;23.72;39.42;99971.63;6303044;22;20003;-84
2023/10/10 11:37:32;;;;;;;2.47;1.30;;;;;;;23.68;39.24;99962.91;6302920;22;20003;-83
2023/10/10 11:40:36;;;;;;;2.20;1.35;;;;;;;23.84;39.02;99996.91;6303410;22;20018;-85
2023/10/10 11:43:05;;;;;;;4.22;1.65;;;;;;;23.61;39.63;100012.72;6302563;22;20003;-83
2023/10/10 11:45:39;;;;;;;4.68;2.13;;;;;;;23.54;40.19;99998.81;6303552;22;20375;-89
2023/10/10 11:48:10;;;;;;;8.48;3.35;;;;;;;23.80;39.69;99998.91;6303422;22;19999;-82
2023/10/10 11:50:49;;;;;;;10.23;3.97;;;;;;;23.54;40.54;100000.59;6302986;22;20022;-83
2023/10/10 11:53:23;;;;;;;20.00;5.80;;;;;;;23.45;40.68;100003.88;6303122;22;20007;-83
2023/10/10 11:55:49;;;;;;;28.85;7.90;;;;;;;23.42;40.60;100003.13;6303451;22;20018;-84
2023/10/10 11:58:17;;;;;;;29.00;10.63;;;;;;;23.49;40.95;100008.97;6303426;22;19995;-81
2023/10/10 12:01:04;;;;;;;20.08;8.77;;;;;;;23.43;40.57;99982.44;6303006;22;20003;-82
2023/10/10 12:03:48;;;;;;;10.50;4.57;;;;;;;23.62;40.62;100010.88;6302352;22;20080;-83
2023/10/10 12:06:14;;;;;;;8.73;4.37;;;;;;;23.39;40.55;100005.16;6302423;22;20096;-84
2023/10/10 12:08:45;;;;;;;7.28;3.45;;;;;;;22.92;40.74;99912.97;6327072;22;20462;-83
2023/10/10 12:11:19;;;;;;;3.92;1.90;;;;;;;23.30;41.06;99976.16;6299901;22;20013;-85
2023/10/10 12:13:45;;;;;;;14.07;1.50;;;;;;;23.31;41.02;99972.47;6300120;22;20038;-87
2023/10/10 12:16:11;;;;;;;5.30;1.50;;;;;;;23.27;40.64;99965.56;6301116;22;19999;-92
2023/10/10 12:18:44;;;;;;;2.30;1.10;;;;;;;23.25;40.64;99933.38;6301751;22;20477;-87
2023/10/10 12:21:14;;;;;;;3.47;1.33;;;;;;;23.27;40.87;99969.13;6301948;22;20007;-86
2023/10/10 12:23:40;;;;;;;5.90;1.38;;;;;;;23.21;40.82;99945.28;6303131;22;19999;-82
2023/10/10 12:26:08;;;;;;;2.72;1.75;;;;;;;23.50;40.83;99974.88;6302545;22;20539;-87
2023/10/10 12:28:34;;;;;;;3.28;2.10;;;;;;;23.23;40.53;99936.16;6302377;22;19999;-84
2023/10/10 12:31:03;;;;;;;6.22;2.33;;;;;;;23.59;40.41;99980.50;6301838;22;20527;-85
2023/10/10 12:33:29;;;;;;;5.38;1.50;;;;;;;23.92;40.14;99978.44;6302863;22;20135;-84
2023/10/10 12:35:56;;;;;;;7.95;2.28;;;;;;;24.13;40.53;100001.25;6300846;22;20037;-86
2023/10/10 12:38:22;;;;;;;16.15;2.15;;;;;;;23.79;40.61;99946.03;6301798;22;20430;-86
2023/10/10 12:40:52;;;;;;;3.50;1.60;;;;;;;23.80;40.51;99996.22;6302531;22;20014;-86
2023/10/10 12:43:18;;;;;;;4.05;1.75;;;;;;;23.77;40.54;99978.47;6305019;22;20009;-84
2023/10/10 12:45:47;;;;;;;4.10;1.50;;;;;;;23.76;40.37;100005.50;6304265;22;20007;-84
2023/10/10 12:48:20;;;;;;;6.68;1.55;;;;;;;23.83;40.83;100006.81;6304129;22;20003;-83
2023/10/10 12:50:47;;;;;;;3.90;1.58;;;;;;;23.99;40.64;99997.75;6304761;22;20152;-87
2023/10/10 12:53:15;;;;;;;2.88;1.63;;;;;;;23.71;40.59;99991.44;6304594;22;20128;-85
2023/10/10 12:55:51;;;;;;;3.25;1.40;;;;;;;23.69;40.25;100007.69;6304695;22;20007;-84
2023/10/10 12:58:20;;;;;;;2.28;1.10;;;;;;;23.73;40.87;99978.75;6304604;22;19999;-83
2023/10/10 13:00:52;;;;;;;2.17;1.27;;;;;;;23.67;40.38;99985.41;6302562;22;20410;-82
2023/10/10 13:03:28;;;;;;;4.97;1.27;;;;;;;23.80;40.85;100009.69;6304030;22;20003;-83
2023/10/10 13:06:00;;;;;;;;;;;;;;;23.82;41.45;100015.88;6303780;22;20011;-85
2023/10/10 13:08:38;;;;;;;1.73;0.90;;;;;;;23.27;41.31;99944.03;6303832;22;19911;-85
2023/10/10 13:11:14;;;;;;;4.72;1.65;;;;;;;23.57;42.37;99974.38;6303897;22;20060;-84
2023/10/10 13:13:46;;;;;;;3.97;2.10;;;;;;;23.35;44.52;99987.47;6303643;22;20442;-84
2023/10/10 13:16:27;;;;;;;10.98;2.83;;;;;;;23.12;45.87;99986.22;6301990;22;20014;-88
2023/10/10 13:18:55;;;;;;;5.45;1.58;;;;;;;22.72;46.20;99946.50;6303856;22;20060;-84
2023/10/10 13:21:21;;;;;;;7.60;2.33;;;;;;;22.74;45.67;99930.25;6303157;22;20058;-83
2023/10/10 13:23:47;;;;;;;5.22;2.40;;;;;;;22.66;46.81;99981.81;6302840;22;20003;-82
2023/10/10 13:26:17;;;;;;;8.05;2.50;;;;;;;23.19;46.54;100018.03;6300961;22;20007;-85
2023/10/10 13:28:44;;;;;;;4.70;2.58;;;;;;;22.97;46.22;99975.44;6302300;22;20028;-87
2023/10/10 13:31:14;;;;;;;11.73;2.25;;;;;;;22.85;46.65;99977.06;6301534;22;20007;-87
2023/10/10 13:33:39;;;;;;;2.42;1.70;;;;;;;22.66;46.18;99958.50;6303629;22;20053;-85
2023/10/10 13:36:11;;;;;;;4.93;2.35;;;;;;;22.48;45.50;99935.44;6303168;22;20011;-86
2023/10/10 13:38:46;;;;;;;5.00;2.30;;;;;;;22.70;44.37;99935.84;6302998;22;19999;-85
2023/10/10 13:41:12;;;;;;;5.05;1.70;;;;;;;23.12;44.47;99959.31;6302107;22;20362;-89
2023/10/10 13:43:41;;;;;;;7.35;2.38;;;;;;;23.20;44.28;99981.22;6301564;22;20003;-88
2023/10/10 13:46:07;;;;;;;7.43;2.28;;;;;;;23.33;44.05;99982.19;6301475;22;20034;-91
2023/10/10 13:48:36;;;;;;;5.22;1.55;;;;;;;23.35;43.91;99985.63;6302253;22;20006;-86
2023/10/10 13:51:04;;;;;;;5.53;1.52;;;;;;;23.32;43.36;99976.91;6302200;22;20010;-87
2023/10/10 13:53:31;;;;;;;2.85;1.48;;;;;;;22.98;43.68;99950.25;6299840;22;20003;-87
2023/10/10 13:56:00;;;;;;;2.35;1.05;;;;;;;22.84;44.28;99942.19;6303407;22;20006;-86
2023/10/10 13:58:27;;;;;;;3.85;1.70;;;;;;;23.02;43.75;99981.38;6302767;22;20102;-87
2023/10/10 14:00:52;;;;;;;3.75;1.20;;;;;;;22.52;43.68;99975.47;6304434;22;20042;-85
2023/10/10 14:03:35;;;;;;;2.30;1.52;;;;;;;22.57;44.05;99974.31;6303780;22;20003;-84
2023/10/10 14:06:08;;;;;;;2.78;1.67;;;;;;;22.53;44.24;99977.19;6303639;22;20011;-87
2023/10/10 14:08:33;;;;;;;1.30;1.05;;;;;;;22.70;43.96;99994.13;6301726;22;20065;-85
2023/10/10 14:11:00;;;;;;;3.35;1.48;;;;;;;22.73;44.16;99977.81;6304031;22;20003;-86
2023/10/10 14:13:28;;;;;;;3.20;1.17;;;;;;;22.67;44.35;100010.44;6303995;22;20030;-85
2023/10/10 14:15:57;;;;;;;3.80;1.55;;;;;;;22.57;43.60;99953.69;6304656;22;20038;-84
2023/10/10 14:18:25;;;;;;;5.40;1.75;;;;;;;22.85;43.60;100000.41;6302798;22;19999;-85
2023/10/10 14:20:51;;;;;;;2.97;1.55;;;;;;;22.74;43.47;99968.78;6303221;22;20116;-86
2023/10/10 14:23:24;;;;;;;6.00;1.85;;;;;;;22.77;43.55;99991.91;6303223;22;20006;-83
2023/10/10 14:25:51;;;;;;;5.57;2.20;;;;;;;22.90;43.90;100017.13;6303530;22;20007;-85
2023/10/10 14:28:19;;;;;;;6.97;1.80;;;;;;;22.63;44.84;99976.63;6303207;22;20049;-84
2023/10/10 14:30:50;;;;;;;6.93;1.77;;;;;;;22.46;46.59;99991.97;6301481;22;20057;-84
2023/10/10 14:33:22;;;;;;;8.05;3.28;;;;;;;22.41;47.84;99998.56;6301893;22;20434;-84
2023/10/10 14:35:47;;;;;;;3.15;1.63;;;;;;;22.27;48.29;100012.78;6302257;22;20013;-82
2023/10/10 14:38:15;;;;;;;3.83;1.70;;;;;;;22.04;48.80;99987.25;6302819;22;20057;-84
2023/10/10 14:40:45;;;;;;;6.28;2.50;;;;;;;22.10;48.46;99998.50;6302463;22;20010;-83
2023/10/10 14:43:11;;;;;;;1.50;1.20;;;;;;;22.37;48.61;100031.94;6302647;22;19999;-83
2023/10/10 14:45:42;;;;;;;2.55;1.80;;;;;;;22.32;48.22;99991.91;6302978;22;20013;-83
2023/10/10 14:48:08;;;;;;;2.80;1.63;;;;;;;22.33;47.47;99962.25;6302988;22;20003;-84
2023/10/10 14:50:38;;;;;;;4.28;2.10;;;;;;;22.55;46.79;100025.47;6302203;22;20078;-85